Time;durP1;ratioP1;P1;durP2;ratioP2;P2;SDS_P1;SDS_P2;PMS_P1;PMS_P2;Temp;Humidity;BMP_temperature;BMP_pressure;BME280_temperature;BME280_humidity;BME280_pressure;Samples;Min_cycle;Max_cycle;Signal;HPM_P1;HPM_P2
2022/05/14 00:01:54;;;;;;;0.10;0.10;;;11.90;99.90;;;;;;5074021;28;20144;-86
2022/05/14 00:04:21;;;;;;;0.08;0.08;;;11.90;99.90;;;;;;5057483;28;20037;-87
2022/05/14 00:06:48;;;;;;;0.00;0.00;;;11.80;99.90;;;;;;5089856;28;20102;-86
2022/05/14 00:09:14;;;;;;;0.05;0.05;;;11.90;99.90;;;;;;5073297;28;20083;-86
2022/05/14 00:14:27;;;;;;;0.10;0.10;;;11.80;99.90;;;;;;5092987;28;20404;-87
2022/05/14 00:16:54;;;;;;;0.00;0.00;;;11.80;99.90;;;;;;5073133;28;20127;-87
2022/05/14 00:19:22;;;;;;;0.10;0.10;;;11.80;99.90;;;;;;5057594;28;20079;-87
2022/05/14 00:21:49;;;;;;;0.10;0.10;;;11.80;99.90;;;;;;5073839;28;20082;-87
2022/05/14 00:24:16;;;;;;;0.10;0.10;;;11.80;99.90;;;;;;5057332;28;20477;-87
2022/05/14 00:26:43;;;;;;;0.10;0.10;;;11.80;99.90;;;;;;5057131;28;20036;-87
2022/05/14 00:29:10;;;;;;;0.05;0.05;;;11.70;99.90;;;;;;5073760;28;20040;-86
2022/05/14 00:31:37;;;;;;;0.10;0.10;;;11.70;99.90;;;;;;5073630;28;20374;-86
2022/05/14 00:34:04;;;;;;;0.00;0.00;;;11.70;99.90;;;;;;5073206;28;20634;-87
2022/05/14 00:36:31;;;;;;;0.10;0.10;;;11.70;99.90;;;;;;5073302;28;20045;-87
2022/05/14 00:38:58;;;;;;;0.10;0.10;;;11.60;99.90;;;;;;5089971;28;20037;-87
2022/05/14 00:41:27;;;;;;;0.10;0.10;;;11.60;99.90;;;;;;5056959;28;20405;-87
2022/05/14 00:43:57;;;;;;;0.00;0.00;;;11.60;99.90;;;;;;5082103;28;20044;-87
2022/05/14 00:46:28;;;;;;;0.10;0.10;;;11.60;99.90;;;;;;5109908;28;20040;-86
2022/05/14 00:48:57;;;;;;;0.00;0.00;;;11.60;99.90;;;;;;5130757;28;20488;-86
2022/05/14 00:51:28;;;;;;;0.10;0.10;;;11.50;99.90;;;;;;5113750;28;20039;-87
2022/05/14 00:54:01;;;;;;;0.10;0.10;;;11.50;99.90;;;;;;5113494;28;20053;-86
2022/05/14 00:56:46;;;;;;;0.10;0.10;;;11.50;99.90;;;;;;5113805;28;20048;-86
2022/05/14 00:59:15;;;;;;;0.10;0.10;;;11.50;99.90;;;;;;5113787;28;20487;-86
2022/05/14 01:01:43;;;;;;;0.10;0.10;;;11.50;99.90;;;;;;5113630;28;20046;-86
2022/05/14 01:04:11;;;;;;;0.10;0.10;;;11.50;99.90;;;;;;5112839;28;20051;-87
2022/05/14 01:06:41;;;;;;;0.00;0.00;;;11.50;99.90;;;;;;5113510;28;20036;-86
2022/05/14 01:09:08;;;;;;;0.00;0.00;;;11.40;99.90;;;;;;5113198;28;20484;-87
2022/05/14 01:11:37;;;;;;;0.00;0.00;;;11.50;99.90;;;;;;5113656;28;20089;-87
2022/05/14 01:14:04;;;;;;;0.00;0.00;;;11.50;99.90;;;;;;5113264;28;20028;-86
2022/05/14 01:16:31;;;;;;;0.10;0.10;;;11.40;99.90;;;;;;5093067;28;20410;-87
2022/05/14 01:18:59;;;;;;;0.00;0.00;;;11.40;99.90;;;;;;5093198;28;20063;-87
2022/05/14 01:22:04;;;;;;;0.10;0.10;;;11.50;99.90;;;;;;5060192;28;20097;-87
2022/05/14 01:27:39;;;;;;;0.10;0.10;;;11.50;99.90;;;;;;5109523;28;20056;-87
2022/05/14 01:30:07;;;;;;;0.00;0.00;;;11.60;99.90;;;;;;5092820;28;20481;-86
2022/05/14 01:32:34;;;;;;;0.10;0.10;;;11.50;99.90;;;;;;5076257;28;20047;-87
2022/05/14 01:35:00;;;;;;;10.60;0.43;;;11.50;99.90;;;;;;5075848;28;20037;-87
2022/05/14 01:37:28;;;;;;;0.10;0.10;;;11.50;99.90;;;;;;5092845;28;20048;-87
2022/05/14 01:39:55;;;;;;;0.10;0.10;;;11.50;99.90;;;;;;5076365;28;20052;-87
2022/05/14 01:42:21;;;;;;;0.03;0.03;;;11.50;99.90;;;;;;5076030;28;20493;-87
2022/05/14 01:44:48;;;;;;;0.10;0.10;;;11.50;99.90;;;;;;5076085;28;20040;-87
2022/05/14 01:47:15;;;;;;;0.10;0.10;;;11.50;99.90;;;;;;5075720;28;20044;-86
2022/05/14 01:49:42;;;;;;;0.15;0.10;;;11.40;99.90;;;;;;5065982;28;20056;-87
2022/05/14 01:52:09;;;;;;;0.10;0.10;;;11.50;99.90;;;;;;5096103;28;20041;-86
2022/05/14 01:54:36;;;;;;;0.00;0.00;;;11.40;99.90;;;;;;5096183;28;20078;-87
2022/05/14 01:57:03;;;;;;;0.10;0.10;;;11.40;99.90;;;;;;5112104;28;20075;-87
2022/05/14 01:59:30;;;;;;;0.00;0.00;;;11.40;99.90;;;;;;5111532;28;20523;-87
2022/05/14 02:01:56;;;;;;;0.10;0.10;;;11.40;99.90;;;;;;5079163;28;20131;-87
2022/05/14 02:04:23;;;;;;;0.00;0.00;;;11.40;99.90;;;;;;5095787;28;20036;-87
2022/05/14 02:06:50;;;;;;;0.10;0.10;;;11.40;99.90;;;;;;5112634;28;20047;-87
2022/05/14 02:09:17;;;;;;;0.08;0.08;;;11.40;99.90;;;;;;5096038;28;20085;-87
2022/05/14 02:11:45;;;;;;;0.05;0.05;;;11.40;99.90;;;;;;5079651;28;20044;-87
2022/05/14 02:14:12;;;;;;;0.10;0.10;;;11.40;99.90;;;;;;5112231;28;20040;-87
2022/05/14 02:16:39;;;;;;;0.10;0.10;;;11.40;99.90;;;;;;5112437;28;20047;-86
2022/05/14 02:19:06;;;;;;;0.10;0.10;;;11.40;99.90;;;;;;5095644;28;20036;-87
2022/05/14 02:21:34;;;;;;;0.00;0.00;;;11.40;99.90;;;;;;5112507;28;20047;-86
2022/05/14 02:24:00;;;;;;;0.10;0.10;;;11.50;99.90;;;;;;5067581;28;20041;-87
2022/05/14 02:26:27;;;;;;;0.10;0.10;;;11.40;99.90;;;;;;5075623;28;20036;-87
2022/05/14 02:28:54;;;;;;;0.08;0.08;;;11.40;99.90;;;;;;5075590;28;20177;-87
2022/05/14 02:31:21;;;;;;;0.10;0.10;;;11.40;99.90;;;;;;5075385;28;20036;-87
2022/05/14 02:33:48;;;;;;;0.10;0.10;;;11.40;99.90;;;;;;5108398;28;20580;-86
2022/05/14 02:36:15;;;;;;;0.20;0.20;;;11.40;99.90;;;;;;5099009;28;20130;-86
2022/05/14 02:38:42;;;;;;;0.10;0.10;;;11.30;99.90;;;;;;5082262;28;20071;-87
2022/05/14 02:41:09;;;;;;;0.00;0.00;;;11.40;99.90;;;;;;5058741;28;20691;-87
2022/05/14 02:43:36;;;;;;;0.10;0.10;;;11.30;99.90;;;;;;5091844;28;20077;-87
2022/05/14 02:46:04;;;;;;;0.00;0.00;;;11.30;99.90;;;;;;5080516;28;20044;-86
2022/05/14 02:48:31;;;;;;;0.10;0.10;;;11.20;99.90;;;;;;5091249;28;20039;-87
2022/05/14 02:50:59;;;;;;;0.10;0.10;;;11.20;99.90;;;;;;5111336;28;20044;-87
2022/05/14 02:53:26;;;;;;;0.10;0.10;;;11.20;99.90;;;;;;5083950;28;20036;-86
2022/05/14 02:55:53;;;;;;;0.00;0.00;;;11.20;99.90;;;;;;5067718;28;20417;-87
2022/05/14 03:01:08;;;;;;;0.00;0.00;;;11.20;99.90;;;;;;5093786;28;20045;-87
2022/05/14 03:03:35;;;;;;;0.10;0.10;;;11.20;99.90;;;;;;5074970;28;20048;-87
2022/05/14 03:06:02;;;;;;;0.10;0.10;;;11.10;99.90;;;;;;5058203;28;20500;-87
2022/05/14 03:08:29;;;;;;;0.05;0.05;;;11.00;99.90;;;;;;5074658;28;20040;-87
2022/05/14 03:10:56;;;;;;;0.00;0.00;;;11.00;99.90;;;;;;5074819;28;20043;-87
2022/05/14 03:13:23;;;;;;;0.08;0.08;;;11.00;99.90;;;;;;5074729;28;20485;-87
2022/05/14 03:15:50;;;;;;;0.10;0.10;;;11.00;99.90;;;;;;5058531;28;20520;-87
2022/05/14 03:18:17;;;;;;;0.10;0.10;;;10.90;99.90;;;;;;5074110;28;20131;-87
2022/05/14 03:20:43;;;;;;;0.05;0.05;;;10.90;99.90;;;;;;5110468;28;20144;-87
2022/05/14 03:23:11;;;;;;;0.50;0.30;;;10.80;99.90;;;;;;5093928;28;20040;-87
2022/05/14 03:25:38;;;;;;;0.10;0.10;;;10.80;99.90;;;;;;5093952;28;20079;-87
2022/05/14 03:28:05;;;;;;;0.10;0.10;;;10.80;99.90;;;;;;5074103;28;20067;-87
2022/05/14 03:30:32;;;;;;;0.05;0.05;;;10.80;99.90;;;;;;5116106;28;20413;-87
2022/05/14 03:32:59;;;;;;;0.10;0.10;;;10.80;99.90;;;;;;5090635;28;20079;-87
2022/05/14 03:35:26;;;;;;;0.00;0.00;;;10.80;99.90;;;;;;5074194;28;20111;-87
2022/05/14 03:37:53;;;;;;;0.00;0.00;;;10.80;99.90;;;;;;5073825;28;20072;-87
2022/05/14 03:40:20;;;;;;;0.10;0.10;;;11.10;99.90;;;;;;5057180;28;20074;-87
2022/05/14 03:42:46;;;;;;;0.10;0.10;;;10.80;99.90;;;;;;5090321;28;20089;-87
2022/05/14 03:45:13;;;;;;;0.00;0.00;;;10.80;99.90;;;;;;5067665;28;20032;-86
2022/05/14 03:47:40;;;;;;;0.10;0.10;;;10.80;99.90;;;;;;5076710;28;20429;-87
2022/05/14 03:50:07;;;;;;;0.10;0.10;;;10.80;99.90;;;;;;5059943;28;20039;-87
2022/05/14 03:52:33;;;;;;;0.00;0.00;;;10.90;99.90;;;;;;5074157;28;20040;-87
2022/05/14 03:55:00;;;;;;;0.10;0.10;;;10.80;99.90;;;;;;5057349;28;20040;-87
2022/05/14 03:57:27;;;;;;;0.10;0.10;;;10.80;99.90;;;;;;5057052;28;20052;-87
2022/05/14 03:59:54;;;;;;;0.10;0.10;;;10.80;99.90;;;;;;5074041;28;20047;-87
2022/05/14 04:02:21;;;;;;;0.10;0.10;;;10.80;99.90;;;;;;5057325;28;20048;-87
2022/05/14 04:04:49;;;;;;;0.10;0.10;;;10.90;99.90;;;;;;5057957;28;20110;-86
2022/05/14 04:07:15;;;;;;;0.10;0.10;;;10.10;99.90;;;;;;5073366;28;20405;-87
2022/05/14 04:09:42;;;;;;;0.10;0.10;;;10.80;99.90;;;;;;5059438;28;20044;-87
2022/05/14 04:12:09;;;;;;;0.10;0.10;;;10.80;99.90;;;;;;5077018;28;20071;-86
2022/05/14 04:14:36;;;;;;;0.10;0.10;;;10.90;99.90;;;;;;5077408;28;20039;-87
2022/05/14 04:17:03;;;;;;;0.10;0.10;;;10.90;99.90;;;;;;5077451;28;20113;-87
2022/05/14 04:19:29;;;;;;;0.35;0.30;;;10.90;99.90;;;;;;5077383;28;20040;-88
2022/05/14 04:21:56;;;;;;;0.10;0.10;;;10.90;99.90;;;;;;5093109;28;20117;-87
2022/05/14 04:24:23;;;;;;;0.15;0.15;;;10.90;99.90;;;;;;5091808;28;20059;-87
2022/05/14 04:26:50;;;;;;;0.08;0.08;;;10.90;99.90;;;;;;5073152;28;20044;-88
2022/05/14 04:29:16;;;;;;;0.00;0.00;;;10.90;99.90;;;;;;5056919;28;20123;-87
2022/05/14 04:31:43;;;;;;;0.10;0.10;;;10.90;99.90;;;;;;5056990;28;20041;-87
2022/05/14 04:34:11;;;;;;;0.00;0.00;;;10.90;99.90;;;;;;5073794;28;20047;-88
2022/05/14 04:36:37;;;;;;;0.00;0.00;;;10.90;99.90;;;;;;5070960;28;20044;-87
2022/05/14 04:39:04;;;;;;;0.10;0.10;;;10.90;99.90;;;;;;5073186;28;20106;-87
2022/05/14 04:41:31;;;;;;;0.00;0.00;;;11.00;99.90;;;;;;5056975;28;20036;-87
2022/05/14 04:43:58;;;;;;;0.08;0.08;;;11.00;99.90;;;;;;5057083;28;20044;-88
2022/05/14 04:46:25;;;;;;;0.10;0.10;;;11.00;99.90;;;;;;5066148;28;20455;-88
2022/05/14 04:48:53;;;;;;;0.10;0.10;;;11.00;99.90;;;;;;5089760;28;20044;-88
2022/05/14 04:51:20;;;;;;;0.10;0.10;;;11.00;99.90;;;;;;5089706;28;20082;-87
2022/05/14 04:53:47;;;;;;;0.10;0.10;;;11.10;99.90;;;;;;5106765;28;20036;-87
2022/05/14 04:56:14;;;;;;;0.10;0.10;;;11.10;99.90;;;;;;5106349;28;20101;-87
2022/05/14 04:58:41;;;;;;;0.10;0.10;;;11.10;99.90;;;;;;5089275;28;20413;-88
2022/05/14 05:01:07;;;;;;;0.10;0.10;;;11.20;99.90;;;;;;5073189;28;20074;-87
2022/05/14 05:03:34;;;;;;;0.00;0.00;;;11.20;99.90;;;;;;5089282;28;20048;-88
2022/05/14 05:06:01;;;;;;;0.10;0.10;;;11.20;99.90;;;;;;5089726;28;20037;-88
2022/05/14 05:08:30;;;;;;;0.00;0.00;;;11.60;99.90;;;;;;5073149;28;20047;-88
2022/05/14 05:10:58;;;;;;;0.10;0.10;;;11.40;99.90;;;;;;5089728;28;20124;-87
2022/05/14 05:13:27;;;;;;;0.08;0.08;;;11.40;99.90;;;;;;5073439;28;20525;-87
2022/05/14 05:15:54;;;;;;;0.10;0.10;;;11.50;99.90;;;;;;5090037;28;20040;-88
2022/05/14 05:18:21;;;;;;;0.00;0.00;;;11.60;99.90;;;;;;5089563;28;20051;-88
2022/05/14 05:20:49;;;;;;;0.10;0.10;;;11.60;99.90;;;;;;5073234;28;20041;-88
2022/05/14 05:23:19;;;;;;;0.00;0.00;;;11.70;99.90;;;;;;5067623;28;20044;-85
2022/05/14 05:25:47;;;;;;;0.08;0.08;;;11.80;99.90;;;;;;5089822;28;20040;-88
2022/05/14 05:28:14;;;;;;;0.00;0.00;;;11.80;99.90;;;;;;5089886;28;20039;-87
2022/05/14 05:30:41;;;;;;;0.10;0.10;;;11.90;99.90;;;;;;5089165;28;20041;-87
2022/05/14 05:33:13;;;;;;;0.10;0.10;;;11.90;99.90;;;;;;5073014;28;20048;-87
2022/05/14 05:35:40;;;;;;;0.10;0.10;;;12.00;99.90;;;;;;5106778;28;20044;-88
2022/05/14 05:38:07;;;;;;;0.03;0.03;;;12.00;99.90;;;;;;5113083;28;20119;-88
2022/05/14 05:40:34;;;;;;;0.00;0.00;;;12.00;99.90;;;;;;5096462;28;20152;-87
2022/05/14 05:43:01;;;;;;;0.10;0.10;;;12.10;99.90;;;;;;5113073;28;20097;-88
2022/05/14 05:45:29;;;;;;;0.20;0.20;;;12.10;99.90;;;;;;5096013;28;20071;-87
2022/05/14 05:47:56;;;;;;;0.10;0.10;;;12.20;99.90;;;;;;5096695;28;20048;-87
2022/05/14 05:50:23;;;;;;;0.20;0.20;;;12.20;99.90;;;;;;5079464;28;20105;-86
2022/05/14 05:52:51;;;;;;;0.00;0.00;;;12.20;99.90;;;;;;5096443;28;20040;-85
2022/05/14 05:58:04;;;;;;;0.00;0.00;;;12.30;99.90;;;;;;5101678;28;20909;-86
2022/05/14 06:00:32;;;;;;;0.10;0.10;;;12.30;99.90;;;;;;5113150;28;20113;-86
2022/05/14 06:03:00;;;;;;;0.00;0.00;;;12.50;99.90;;;;;;5096541;28;20044;-88
2022/05/14 06:05:27;;;;;;;0.00;0.00;;;12.60;99.90;;;;;;5092832;28;20044;-85
2022/05/14 06:07:54;;;;;;;0.00;0.00;;;12.70;99.90;;;;;;5075747;28;20596;-86
2022/05/14 06:10:22;;;;;;;0.00;0.00;;;12.70;99.90;;;;;;5075699;28;20048;-86
2022/05/14 06:12:49;;;;;;;0.00;0.00;;;12.80;99.90;;;;;;5081379;28;20060;-85
2022/05/14 06:15:18;;;;;;;0.03;0.03;;;12.90;99.90;;;;;;5075489;28;20045;-86
2022/05/14 06:17:45;;;;;;;0.00;0.00;;;12.90;99.90;;;;;;5091908;28;20044;-84
2022/05/14 06:20:14;;;;;;;0.10;0.10;;;13.00;99.90;;;;;;5092455;28;20123;-85
2022/05/14 06:22:42;;;;;;;1.00;0.32;;;13.00;99.90;;;;;;5103137;28;20404;-86
2022/05/14 06:25:09;;;;;;;0.10;0.10;;;13.10;99.90;;;;;;5120533;28;20390;-86
2022/05/14 06:27:36;;;;;;;0.10;0.10;;;13.20;99.90;;;;;;5075307;28;20040;-86
2022/05/14 06:30:04;;;;;;;0.00;0.00;;;13.20;99.90;;;;;;5058899;28;20089;-86
2022/05/14 06:32:31;;;;;;;0.00;0.00;;;13.30;99.90;;;;;;5082881;28;20090;-86
2022/05/14 06:35:01;;;;;;;0.00;0.00;;;13.30;99.90;;;;;;5087687;28;20370;-86
2022/05/14 06:37:27;;;;;;;0.10;0.10;;;13.40;99.90;;;;;;5068480;28;20051;-86
2022/05/14 06:39:54;;;;;;;0.00;0.00;;;13.50;99.90;;;;;;5081217;28;20129;-87
2022/05/14 06:42:21;;;;;;;0.00;0.00;;;13.50;99.90;;;;;;5073476;28;20043;-86
2022/05/14 06:44:48;;;;;;;0.10;0.10;;;13.50;99.90;;;;;;5091058;28;20201;-86
2022/05/14 06:47:14;;;;;;;0.10;0.10;;;13.50;99.90;;;;;;5091656;28;20056;-86
2022/05/14 06:49:41;;;;;;;0.00;0.00;;;13.60;99.90;;;;;;5058189;28;20041;-86
2022/05/14 06:52:12;;;;;;;0.10;0.10;;;13.70;99.90;;;;;;5058168;28;20195;-86
2022/05/14 06:54:43;;;;;;;0.00;0.00;;;13.80;99.90;;;;;;5124625;28;20044;-88
2022/05/14 06:57:10;;;;;;;0.00;0.00;;;13.90;99.90;;;;;;5090916;28;20143;-86
2022/05/14 06:59:37;;;;;;;0.00;0.00;;;14.00;99.90;;;;;;5058106;28;20087;-86
2022/05/14 07:02:05;;;;;;;0.00;0.00;;;14.00;99.90;;;;;;5091276;28;20043;-86
2022/05/14 07:07:17;;;;;;;;;;;14.20;99.90;;;;;;5079864;28;20131;-87
2022/05/14 07:09:44;;;;;;;0.00;0.00;;;14.40;99.90;;;;;;5091204;28;20417;-87
2022/05/14 07:12:12;;;;;;;0.00;0.00;;;14.40;99.90;;;;;;5091132;28;20477;-87
2022/05/14 07:14:44;;;;;;;0.00;0.00;;;14.50;99.90;;;;;;5090886;28;20044;-87
2022/05/14 07:17:11;;;;;;;0.00;0.00;;;14.50;99.90;;;;;;5059675;28;20084;-86
2022/05/14 07:19:39;;;;;;;0.10;0.10;;;14.60;99.90;;;;;;5090640;28;20047;-87
2022/05/14 07:22:07;;;;;;;0.00;0.00;;;14.60;99.90;;;;;;5090748;28;20070;-86
2022/05/14 07:24:33;;;;;;;0.00;0.00;;;14.70;99.90;;;;;;5103615;28;20101;-86
2022/05/14 07:27:03;;;;;;;0.00;0.00;;;14.70;99.90;;;;;;5071221;28;20041;-87
2022/05/14 07:29:30;;;;;;;0.30;0.30;;;14.80;99.90;;;;;;5076687;28;20507;-87
2022/05/14 07:31:58;;;;;;;2.42;1.45;;;14.90;99.90;;;;;;5112528;28;20033;-87
2022/05/14 07:34:24;;;;;;;0.00;0.00;;;15.00;99.90;;;;;;5090850;28;20041;-87
2022/05/14 07:36:53;;;;;;;0.08;0.08;;;14.90;99.90;;;;;;5074035;28;20488;-86
2022/05/14 07:39:24;;;;;;;0.10;0.10;;;14.90;99.90;;;;;;5090118;28;20040;-87
2022/05/14 07:41:55;;;;;;;0.00;0.00;;;15.00;99.90;;;;;;5109784;28;20040;-88
2022/05/14 07:44:25;;;;;;;0.15;0.13;;;15.20;99.90;;;;;;5100367;28;20075;-88
2022/05/14 07:46:53;;;;;;;0.00;0.00;;;15.30;99.90;;;;;;5110149;28;20040;-86
2022/05/14 07:49:22;;;;;;;0.00;0.00;;;15.40;99.90;;;;;;5110259;28;20071;-86
2022/05/14 07:51:50;;;;;;;0.08;0.08;;;15.50;99.90;;;;;;5091229;28;20053;-87
2022/05/14 07:54:17;;;;;;;0.10;0.10;;;15.50;99.90;;;;;;5095553;28;20032;-86
2022/05/14 07:56:47;;;;;;;0.00;0.00;;;15.70;99.90;;;;;;5089423;28;20068;-89
2022/05/14 07:59:15;;;;;;;0.00;0.00;;;15.70;99.90;;;;;;5084232;28;20036;-89
2022/05/14 08:01:42;;;;;;;0.10;0.10;;;15.70;99.90;;;;;;5082050;28;20056;-84
2022/05/14 08:04:09;;;;;;;0.00;0.00;;;15.90;99.90;;;;;;5073071;28;20523;-84
2022/05/14 08:06:36;;;;;;;0.00;0.00;;;16.00;99.90;;;;;;5089815;28;20041;-90
2022/05/14 08:09:04;;;;;;;0.10;0.10;;;16.00;99.90;;;;;;5093125;28;20446;-88
2022/05/14 08:11:32;;;;;;;0.00;0.00;;;15.90;99.90;;;;;;5100528;28;20492;-90
2022/05/14 08:13:59;;;;;;;0.05;0.05;;;16.10;99.90;;;;;;5099220;28;20493;-86
2022/05/14 08:16:27;;;;;;;0.20;0.20;;;16.10;99.90;;;;;;5127040;28;20036;-86
2022/05/14 08:18:58;;;;;;;0.22;0.10;;;16.10;99.90;;;;;;5110621;28;20101;-86
2022/05/14 08:26:55;;;;;;;0.00;0.00;;;16.40;99.90;;;;;;5091494;28;20053;-86
2022/05/14 08:29:22;;;;;;;0.00;0.00;;;16.50;99.90;;;;;;5077259;28;20038;-88
2022/05/14 08:31:50;;;;;;;0.00;0.00;;;16.60;99.90;;;;;;5093020;28;20731;-87
2022/05/14 08:34:18;;;;;;;0.52;0.20;;;16.70;99.90;;;;;;5089104;28;20028;-86
2022/05/14 08:36:45;;;;;;;0.00;0.00;;;16.90;99.90;;;;;;5073167;28;20056;-87
2022/05/14 08:39:12;;;;;;;0.68;0.20;;;17.00;99.90;;;;;;5090088;28;20127;-85
2022/05/14 08:41:43;;;;;;;2.03;0.35;;;17.10;99.90;;;;;;5126512;28;20059;-85
2022/05/14 08:44:37;;;;;;;0.25;0.13;;;17.00;99.90;;;;;;5107963;28;20079;-84
2022/05/14 08:47:07;;;;;;;0.35;0.00;;;17.10;99.90;;;;;;5121917;28;20052;-85
2022/05/14 08:49:43;;;;;;;0.17;0.15;;;17.30;99.90;;;;;;5111455;28;20121;-85
2022/05/14 08:52:15;;;;;;;0.10;0.03;;;17.50;99.90;;;;;;5109490;28;20040;-86
2022/05/14 08:54:42;;;;;;;0.00;0.00;;;17.50;99.90;;;;;;5094190;28;20036;-85
2022/05/14 08:57:21;;;;;;;0.55;0.43;;;17.60;99.90;;;;;;5108329;28;20132;-85
2022/05/14 08:59:55;;;;;;;0.10;0.10;;;17.60;99.90;;;;;;5109406;28;20484;-87
2022/05/14 09:02:35;;;;;;;0.20;0.10;;;17.50;99.90;;;;;;5126712;28;20079;-85
2022/05/14 09:05:13;;;;;;;0.10;0.10;;;17.50;99.90;;;;;;5109062;28;20282;-86
2022/05/14 09:07:40;;;;;;;0.20;0.20;;;17.70;99.90;;;;;;5109560;28;20386;-86
2022/05/14 09:10:21;;;;;;;0.00;0.00;;;17.90;99.90;;;;;;5096236;28;20044;-86
2022/05/14 09:12:58;;;;;;;0.00;0.00;;;18.00;99.90;;;;;;5112900;28;20401;-88
2022/05/14 09:15:28;;;;;;;0.10;0.10;;;18.10;99.90;;;;;;5102147;28;20523;-88
2022/05/14 09:18:11;;;;;;;0.13;0.10;;;18.10;99.90;;;;;;5113159;28;20138;-83
2022/05/14 09:20:48;;;;;;;0.65;0.22;;;18.20;99.90;;;;;;5114064;28;20044;-81
2022/05/14 09:23:46;;;;;;;0.10;0.10;;;18.30;99.90;;;;;;5113120;28;20035;-88
2022/05/14 09:26:38;;;;;;;0.00;0.00;;;18.20;99.90;;;;;;5106799;28;20048;-81
2022/05/14 09:29:34;;;;;;;0.10;0.03;;;18.40;99.90;;;;;;5111974;28;20059;-82
2022/05/14 09:32:05;;;;;;;0.00;0.00;;;18.40;99.90;;;;;;5113631;28;20032;-88
2022/05/14 09:34:34;;;;;;;0.10;0.10;;;18.60;99.90;;;;;;5112679;28;20550;-87
2022/05/14 09:37:13;;;;;;;0.17;0.13;;;18.50;99.90;;;;;;5093718;28;20040;-87
2022/05/14 09:39:40;;;;;;;1.77;0.22;;;18.30;99.90;;;;;;5093293;28;20041;-85
2022/05/14 09:42:24;;;;;;;0.00;0.00;;;18.20;99.90;;;;;;5092274;28;20082;-80
2022/05/14 09:44:53;;;;;;;1.25;0.20;;;18.20;99.90;;;;;;5099213;28;20579;-87
2022/05/14 09:47:33;;;;;;;0.75;0.30;;;18.40;99.90;;;;;;5099820;28;20541;-87
2022/05/14 09:50:03;;;;;;;1.63;0.60;;;18.40;99.90;;;;;;5116744;28;20036;-81
2022/05/14 09:52:33;;;;;;;0.10;0.10;;;18.40;99.90;;;;;;5132695;28;20043;-81
2022/05/14 09:55:03;;;;;;;1.25;0.30;;;18.40;99.90;;;;;;5132251;28;20049;-85
2022/05/14 09:57:43;;;;;;;0.05;0.05;;;18.30;99.90;;;;;;5115196;28;20055;-85
2022/05/14 10:00:32;;;;;;;0.03;0.03;;;18.40;99.90;;;;;;5112905;28;20048;-87
2022/05/14 10:03:06;;;;;;;0.10;0.10;;;18.30;99.90;;;;;;5112460;28;20047;-89
2022/05/14 10:05:58;;;;;;;0.10;0.10;;;18.20;99.90;;;;;;5112270;28;20069;-81
